East Port Orchard, Washington
Current Conditions -  °F | °C
As of 10:15 AM on Tuesday 21 Oct 2014 (Local Time) from KPWT Reporting Station
Overcast Overcast  
Wind Chill: 54°   Ceiling: 3100
Heat Index: 54°   Visibility: 10mi
Dew Point: 52°   Wind: 12mph
Humidity: 94%   Direction: 170°S
Pressure: 29.93"   Gusts: 20mph
Location:  47.5378°N, 122.589°W
Report Text: KPWT 211715Z AUTO 17010G17KT 10SM SCT008 BKN031 OVC070 12/11 A2993 RMK AO1
Loading
Personal Weather Stations






























Interactive Weather Map New forecast layout! Learn more

10-Day Weather Forecast

Advertisements
Track Severe Weather on mobile